createdAt,value
2022-11-28T00:00:46.932Z,6.53
2022-11-28T00:05:48.930Z,7.15
2022-11-28T00:10:50.919Z,7.40
2022-11-28T00:16:00.248Z,7.00
2022-11-28T00:21:07.954Z,5.95
2022-11-28T00:26:22.057Z,6.22
2022-11-28T00:31:30.280Z,6.65
2022-11-28T00:36:32.215Z,6.07
2022-11-28T00:41:35.426Z,5.63
2022-11-28T00:46:37.311Z,5.40
2022-11-28T00:51:39.552Z,5.45
2022-11-28T00:56:41.447Z,5.38
2022-11-28T01:01:44.388Z,5.70
2022-11-28T01:06:49.068Z,5.90
2022-11-28T01:11:53.845Z,5.90
2022-11-28T01:16:55.685Z,6.13
2022-11-28T01:21:57.545Z,6.47
2022-11-28T01:26:59.516Z,7.32
2022-11-28T01:32:01.416Z,7.80
2022-11-28T01:37:03.375Z,7.18
2022-11-28T01:42:05.210Z,8.13
2022-11-28T01:47:07.068Z,6.65
2022-11-28T01:52:13.443Z,7.95
2022-11-28T01:57:19.792Z,6.80
2022-11-28T02:02:36.928Z,7.45
2022-11-28T02:07:40.966Z,7.40
2022-11-28T02:13:05.641Z,7.00
2022-11-28T02:18:31.370Z,6.88
2022-11-28T02:23:38.780Z,8.30
2022-11-28T02:29:11.348Z,7.35
2022-11-28T02:34:21.756Z,7.00
2022-11-28T02:39:41.646Z,7.22
2022-11-28T02:44:55.832Z,7.50
2022-11-28T02:50:12.144Z,8.43
2022-11-28T02:55:15.327Z,8.82
2022-11-28T03:00:23.848Z,7.82
2022-11-28T03:05:43.163Z,8.40
2022-11-28T03:10:57.170Z,7.75
2022-11-28T03:16:16.869Z,9.07
2022-11-28T03:21:33.045Z,9.05
2022-11-28T03:26:47.020Z,8.60
2022-11-28T03:31:57.599Z,7.72
2022-11-28T03:37:11.612Z,8.43
2022-11-28T03:42:21.214Z,8.32
2022-11-28T03:47:28.402Z,8.18
2022-11-28T03:52:35.589Z,8.48
2022-11-28T03:57:47.762Z,8.02
2022-11-28T04:03:02.407Z,8.13
2022-11-28T04:08:19.433Z,8.85
2022-11-28T04:13:26.186Z,8.27
2022-11-28T04:18:40.237Z,8.30
2022-11-28T04:23:45.042Z,8.95
2022-11-28T04:28:50.072Z,9.48
2022-11-28T04:33:58.374Z,8.85
2022-11-28T04:39:01.635Z,9.60
2022-11-28T04:44:13.646Z,10.20
2022-11-28T04:49:15.610Z,10.02
2022-11-28T04:54:33.631Z,9.13
2022-11-28T04:59:35.582Z,8.82
2022-11-28T05:04:38.502Z,9.40
2022-11-28T05:09:40.359Z,10.00
2022-11-28T05:14:42.488Z,10.70
2022-11-28T05:19:44.413Z,11.48
2022-11-28T05:24:46.422Z,11.05
2022-11-28T05:29:52.221Z,10.57
2022-11-28T05:34:54.279Z,10.00
2022-11-28T05:39:56.152Z,10.50
2022-11-28T05:44:58.018Z,10.90
2022-11-28T05:50:00.018Z,10.18
2022-11-28T05:55:01.881Z,11.57
2022-11-28T06:00:04.458Z,11.68
2022-11-28T06:05:40.421Z,10.98
2022-11-28T06:10:35.859Z,10.60
2022-11-28T06:15:38.650Z,11.23
2022-11-28T06:20:40.622Z,10.50
2022-11-28T06:25:42.453Z,10.93
2022-11-28T06:30:44.688Z,9.75
2022-11-28T06:35:46.482Z,9.68
2022-11-28T06:40:48.277Z,10.02
2022-11-28T06:45:50.152Z,10.40
2022-11-28T06:50:53.017Z,10.05
2022-11-28T06:55:55.037Z,10.30
2022-11-28T07:00:56.900Z,10.60
2022-11-28T07:06:04.220Z,11.27
2022-11-28T07:11:12.946Z,10.38
2022-11-28T07:16:21.332Z,9.45
2022-11-28T07:21:24.150Z,10.80
2022-11-28T07:26:26.056Z,11.85
2022-11-28T07:31:32.250Z,10.38
2022-11-28T07:36:34.422Z,10.73
2022-11-28T07:41:36.325Z,10.55
2022-11-28T07:46:39.523Z,10.75
2022-11-28T07:51:42.311Z,9.73
2022-11-28T07:57:11.514Z,11.43
2022-11-28T08:02:06.113Z,10.75
2022-11-28T08:07:07.955Z,10.90
2022-11-28T08:12:09.744Z,11.30
2022-11-28T08:17:11.558Z,10.68
2022-11-28T08:22:13.468Z,9.75
2022-11-28T08:27:15.244Z,10.57
2022-11-28T08:32:17.300Z,9.98
2022-11-28T08:37:19.123Z,10.70
2022-11-28T08:42:21.466Z,9.90
2022-11-28T08:47:23.355Z,10.57
2022-11-28T08:52:25.549Z,9.27
2022-11-28T08:57:27.345Z,10.75
2022-11-28T09:02:29.219Z,9.20
2022-11-28T09:07:31.196Z,10.80
2022-11-28T09:12:33.037Z,10.52
2022-11-28T09:17:34.842Z,9.18
2022-11-28T09:22:36.688Z,9.73
2022-11-28T09:27:38.508Z,8.90
2022-11-28T09:32:40.441Z,9.52
2022-11-28T09:37:42.373Z,10.27
2022-11-28T09:42:45.788Z,9.65
2022-11-28T09:47:52.250Z,11.05
2022-11-28T09:53:02.575Z,9.23
2022-11-28T09:58:24.542Z,9.27
2022-11-28T10:03:39.563Z,10.18
2022-11-28T10:09:02.972Z,11.13
2022-11-28T10:14:39.958Z,10.70
2022-11-28T10:20:09.361Z,12.20
2022-11-28T10:25:22.815Z,11.38
2022-11-28T10:30:27.488Z,11.40
2022-11-28T10:35:50.883Z,12.48
2022-11-28T10:41:13.442Z,11.35
2022-11-28T10:46:18.011Z,10.45
2022-11-28T10:51:19.844Z,10.57
2022-11-28T10:56:40.410Z,11.48
2022-11-28T11:01:46.004Z,11.32
2022-11-28T11:07:20.223Z,11.23
2022-11-28T11:12:30.722Z,11.20
2022-11-28T11:17:36.582Z,10.63
2022-11-28T11:22:38.615Z,11.02
2022-11-28T11:28:03.550Z,10.95
2022-11-28T11:33:13.958Z,11.82
2022-11-28T11:38:21.512Z,12.25
2022-11-28T11:43:29.331Z,11.40
2022-11-28T11:48:41.183Z,11.48
2022-11-28T11:53:44.174Z,12.23
2022-11-28T11:58:54.388Z,11.57
2022-11-28T12:04:23.669Z,11.27
2022-11-28T12:09:42.281Z,11.63
2022-11-28T12:14:44.956Z,11.10
2022-11-28T12:20:02.520Z,12.18
2022-11-28T12:25:10.500Z,10.25
2022-11-28T12:30:44.929Z,11.32
2022-11-28T12:36:03.303Z,11.32
2022-11-28T12:41:05.441Z,11.60
2022-11-28T12:46:22.459Z,10.85
2022-11-28T12:51:59.434Z,11.05
2022-11-28T12:57:36.762Z,11.20
2022-11-28T13:03:03.150Z,11.48
2022-11-28T13:08:23.649Z,12.45
2022-11-28T13:18:46.000Z,10.98
2022-11-28T13:24:07.131Z,10.82
2022-11-28T13:29:20.864Z,10.73
2022-11-28T13:34:23.258Z,10.98
2022-11-28T13:39:27.842Z,11.18
2022-11-28T13:44:59.331Z,11.95
2022-11-28T13:50:25.834Z,11.13
2022-11-28T13:55:36.836Z,11.95
2022-11-28T14:00:40.988Z,11.70
2022-11-28T14:05:45.408Z,10.55
2022-11-28T14:10:58.080Z,11.77
2022-11-28T14:16:09.643Z,11.07
2022-11-28T14:21:23.561Z,12.07
2022-11-28T14:26:35.314Z,11.75
2022-11-28T14:31:39.076Z,12.02
2022-11-28T14:36:43.162Z,13.10
2022-11-28T14:42:03.935Z,11.35
2022-11-28T14:57:45.008Z,11.35
2022-11-28T15:02:56.259Z,13.20
2022-11-28T15:08:25.541Z,11.65
2022-11-28T15:13:30.557Z,12.80
2022-11-28T15:18:33.494Z,11.25
2022-11-28T15:23:38.544Z,14.85
2022-11-28T15:28:40.421Z,14.38
2022-11-28T15:33:42.444Z,15.93
2022-11-28T15:38:44.356Z,14.75
2022-11-28T15:43:46.504Z,14.77
2022-11-28T15:48:50.834Z,16.83
2022-11-28T15:53:52.795Z,39.33
2022-11-28T15:58:55.064Z,15.23
2022-11-28T16:04:07.784Z,11.77
2022-11-28T16:09:18.936Z,12.95
2022-11-28T16:14:31.821Z,12.68
2022-11-28T16:19:36.661Z,12.90
2022-11-28T16:24:50.484Z,14.10
2022-11-28T16:29:52.357Z,13.95
2022-11-28T16:34:55.727Z,13.52
2022-11-28T16:40:14.830Z,13.13
2022-11-28T16:45:21.226Z,14.02
2022-11-28T16:50:25.206Z,13.85
2022-11-28T16:55:38.647Z,13.75
2022-11-28T17:01:03.003Z,14.65
2022-11-28T17:06:04.966Z,14.68
2022-11-28T17:11:06.862Z,12.82
2022-11-28T17:16:17.744Z,14.82
2022-11-28T17:21:33.267Z,14.65
2022-11-28T17:26:35.077Z,14.07
2022-11-28T17:31:37.472Z,13.60
2022-11-28T17:36:39.340Z,13.55
2022-11-28T17:41:41.378Z,15.10
2022-11-28T17:46:43.198Z,15.60
2022-11-28T17:51:45.755Z,15.25
2022-11-28T17:56:52.650Z,15.15
2022-11-28T18:01:54.628Z,14.05
2022-11-28T18:07:00.191Z,14.88
2022-11-28T18:12:01.980Z,15.68
2022-11-28T18:17:04.264Z,15.43
2022-11-28T18:22:08.579Z,16.17
2022-11-28T18:27:10.384Z,17.05
2022-11-28T18:32:12.325Z,16.20
2022-11-28T18:37:14.151Z,16.60
2022-11-28T18:42:17.525Z,16.02
2022-11-28T18:47:19.623Z,19.10
2022-11-28T18:52:21.464Z,18.63
2022-11-28T18:57:23.611Z,17.35
2022-11-28T19:02:25.567Z,17.48
2022-11-28T19:07:27.539Z,18.23
2022-11-28T19:12:29.430Z,18.55
2022-11-28T19:17:31.344Z,17.48
2022-11-28T19:22:35.716Z,16.20
2022-11-28T19:27:37.717Z,15.27
2022-11-28T19:32:39.537Z,15.77
2022-11-28T19:37:42.258Z,15.38
2022-11-28T19:42:44.060Z,15.85
2022-11-28T19:47:48.655Z,18.92
2022-11-28T19:52:50.625Z,17.13
2022-11-28T19:57:52.904Z,17.15
2022-11-28T20:02:55.071Z,16.52
2022-11-28T20:07:58.616Z,17.67
2022-11-28T20:13:00.764Z,16.67
2022-11-28T20:18:03.779Z,17.00
2022-11-28T20:23:06.603Z,16.63
2022-11-28T20:28:08.699Z,17.27
2022-11-28T20:33:10.774Z,17.35
2022-11-28T20:38:12.847Z,17.27
2022-11-28T20:43:14.681Z,16.33
2022-11-28T20:48:16.529Z,15.02
2022-11-28T20:53:23.679Z,15.20
2022-11-28T20:58:28.750Z,15.48
2022-11-28T21:03:30.578Z,15.63
2022-11-28T21:08:33.835Z,15.93
2022-11-28T21:13:35.831Z,15.15
2022-11-28T21:18:39.283Z,15.35
2022-11-28T21:23:42.377Z,14.50
2022-11-28T21:28:45.934Z,14.55
2022-11-28T21:33:49.194Z,15.38
2022-11-28T21:38:56.449Z,15.52
2022-11-28T21:43:59.766Z,15.18
2022-11-28T21:49:02.986Z,15.13
2022-11-28T21:54:04.957Z,14.52
2022-11-28T21:59:07.095Z,13.85
2022-11-28T22:04:10.740Z,14.35
2022-11-28T22:09:13.567Z,12.50
2022-11-28T22:14:15.786Z,13.90
2022-11-28T22:19:17.814Z,11.75
2022-11-28T22:24:19.776Z,14.10
2022-11-28T22:29:22.001Z,13.52
2022-11-28T22:34:24.021Z,13.00
2022-11-28T22:39:25.915Z,12.75
2022-11-28T22:44:27.911Z,12.45
2022-11-28T22:49:29.830Z,12.65
2022-11-28T22:54:31.811Z,12.70
2022-11-28T22:59:35.305Z,12.63
2022-11-28T23:04:38.081Z,12.55
2022-11-28T23:09:40.202Z,12.95
2022-11-28T23:14:42.444Z,12.18
2022-11-28T23:19:44.759Z,13.48
2022-11-28T23:24:46.638Z,12.20
2022-11-28T23:29:48.508Z,13.25
2022-11-28T23:34:50.473Z,13.75
2022-11-28T23:39:52.314Z,12.50
2022-11-28T23:44:54.174Z,14.13
2022-11-28T23:49:56.017Z,13.85
2022-11-28T23:54:57.929Z,13.15
